Time;durP1;ratioP1;P1;durP2;ratioP2;P2;SDS_P1;SDS_P2;PMS_P1;PMS_P2;Temp;Humidity;BMP_temperature;BMP_pressure;BME280_temperature;BME280_humidity;BME280_pressure;Samples;Min_cycle;Max_cycle;Signal;HPM_P1;HPM_P2
2021/03/11 00:00:09;;;;;;;21.47;19.60;;;;;;;;;;5087102;28;20740;-12
2021/03/11 00:02:47;;;;;;;21.50;19.60;;;;;;;;;;5079158;28;20553;-13
2021/03/11 00:05:18;;;;;;;22.37;20.13;;;;;;;;;;5091205;28;20452;-14
2021/03/11 00:07:47;;;;;;;23.83;21.40;;;;;;;;;;5097865;28;20479;-15
2021/03/11 00:10:15;;;;;;;23.40;21.20;;;;;;;;;;5091036;28;20849;-14
2021/03/11 00:12:44;;;;;;;22.57;20.27;;;;;;;;;;5098761;28;20498;-14
2021/03/11 00:15:13;;;;;;;20.50;18.70;;;;;;;;;;5100214;28;20428;-14
2021/03/11 00:17:41;;;;;;;20.30;18.40;;;;;;;;;;5083732;28;20472;-14
2021/03/11 00:20:12;;;;;;;20.00;18.13;;;;;;;;;;5084641;28;20444;-13
2021/03/11 00:22:41;;;;;;;20.77;19.07;;;;;;;;;;5081197;28;20455;-14
2021/03/11 00:25:10;;;;;;;20.37;18.60;;;;;;;;;;5098922;28;20529;-14
2021/03/11 00:27:38;;;;;;;21.93;19.77;;;;;;;;;;5098880;28;20490;-14
2021/03/11 00:30:06;;;;;;;20.27;18.37;;;;;;;;;;5098616;28;20991;-14
2021/03/11 00:32:34;;;;;;;22.47;20.50;;;;;;;;;;5098868;28;20451;-14
2021/03/11 00:35:01;;;;;;;20.80;19.00;;;;;;;;;;5071934;28;20440;-13
2021/03/11 00:37:30;;;;;;;21.97;19.87;;;;;;;;;;5077634;28;20522;-14
2021/03/11 00:39:57;;;;;;;21.47;19.57;;;;;;;;;;5076837;28;21174;-14
2021/03/11 00:42:25;;;;;;;22.67;20.60;;;;;;;;;;5077708;28;20494;-14
2021/03/11 00:44:55;;;;;;;25.23;21.10;;;;;;;;;;5084479;28;20444;-14
2021/03/11 00:47:24;;;;;;;22.67;20.57;;;;;;;;;;5080544;28;20485;-14
2021/03/11 00:49:52;;;;;;;21.60;19.53;;;;;;;;;;5081181;28;20467;-13
2021/03/11 00:52:22;;;;;;;22.63;20.13;;;;;;;;;;5083289;28;20444;-13
2021/03/11 00:54:55;;;;;;;21.50;19.50;;;;;;;;;;5101511;28;20728;-13
2021/03/11 00:57:23;;;;;;;21.90;19.67;;;;;;;;;;5100920;28;20482;-14
2021/03/11 00:59:51;;;;;;;21.60;19.80;;;;;;;;;;5082931;28;20518;-14
2021/03/11 01:02:20;;;;;;;21.07;19.17;;;;;;;;;;5083861;28;20501;-14
2021/03/11 01:04:52;;;;;;;20.73;18.93;;;;;;;;;;5073987;28;20509;-14
2021/03/11 01:07:20;;;;;;;23.10;21.10;;;;;;;;;;5082566;28;20452;-13
2021/03/11 01:09:47;;;;;;;21.50;19.70;;;;;;;;;;5064184;28;20428;-14
2021/03/11 01:12:16;;;;;;;19.87;17.83;;;;;;;;;;5082000;28;20455;-14
2021/03/11 01:14:44;;;;;;;20.43;18.43;;;;;;;;;;5082080;28;20664;-14
2021/03/11 01:17:14;;;;;;;21.47;19.40;;;;;;;;;;5086802;28;20570;-14
2021/03/11 01:19:41;;;;;;;20.43;18.50;;;;;;;;;;5103330;28;20455;-13
2021/03/11 01:22:09;;;;;;;20.50;18.60;;;;;;;;;;5104099;28;20436;-13
2021/03/11 01:24:36;;;;;;;19.43;17.53;;;;;;;;;;5103596;28;20461;-13
2021/03/11 01:27:03;;;;;;;20.40;18.67;;;;;;;;;;5101744;28;20544;-14
2021/03/11 01:29:32;;;;;;;19.27;17.60;;;;;;;;;;5081891;28;20444;-14
2021/03/11 01:31:59;;;;;;;19.60;18.00;;;;;;;;;;5098390;28;20447;-14
2021/03/11 01:34:26;;;;;;;19.43;17.67;;;;;;;;;;5100650;28;20467;-13
2021/03/11 01:36:53;;;;;;;19.97;18.07;;;;;;;;;;5097660;28;20451;-13
2021/03/11 01:39:21;;;;;;;19.13;17.43;;;;;;;;;;5063473;28;20440;-14
2021/03/11 01:41:48;;;;;;;20.07;18.37;;;;;;;;;;5079784;28;20448;-13
2021/03/11 01:44:15;;;;;;;21.77;19.67;;;;;;;;;;5081906;28;20448;-13
2021/03/11 01:46:43;;;;;;;20.20;18.23;;;;;;;;;;5065253;28;20759;-14
2021/03/11 01:49:11;;;;;;;21.83;19.73;;;;;;;;;;5082119;28;20480;-13
2021/03/11 01:51:38;;;;;;;19.63;18.00;;;;;;;;;;5081226;28;20734;-13
2021/03/11 01:54:07;;;;;;;19.50;17.70;;;;;;;;;;5082341;28;20918;-13
2021/03/11 01:56:34;;;;;;;18.60;16.90;;;;;;;;;;5083706;28;20502;-13
2021/03/11 01:59:03;;;;;;;17.90;16.00;;;;;;;;;;5082172;28;20538;-12
2021/03/11 02:01:30;;;;;;;17.50;16.00;;;;;;;;;;5081953;28;20625;-15
2021/03/11 02:03:58;;;;;;;18.57;16.97;;;;;;;;;;5095342;28;20451;-13
2021/03/11 02:06:26;;;;;;;18.57;16.90;;;;;;;;;;5102776;28;20451;-13
2021/03/11 02:08:56;;;;;;;16.30;15.00;;;;;;;;;;5090799;28;20455;-14
2021/03/11 02:11:27;;;;;;;16.27;14.87;;;;;;;;;;5082378;28;20452;-14
2021/03/11 02:13:57;;;;;;;15.83;14.63;;;;;;;;;;5081295;28;20500;-13
2021/03/11 02:16:30;;;;;;;17.63;15.93;;;;;;;;;;5087418;28;20448;-12
2021/03/11 02:19:03;;;;;;;16.60;15.10;;;;;;;;;;5099285;28;20487;-12
2021/03/11 02:21:33;;;;;;;16.33;15.23;;;;;;;;;;5100612;28;20444;-12
2021/03/11 02:24:23;;;;;;;16.00;14.77;;;;;;;;;;5100667;28;20538;-13
2021/03/11 02:27:03;;;;;;;15.30;14.20;;;;;;;;;;5092518;28;20444;-14
2021/03/11 02:29:34;;;;;;;17.60;15.90;;;;;;;;;;5101033;28;20455;-13
2021/03/11 02:32:03;;;;;;;17.33;15.97;;;;;;;;;;5099107;28;20452;-13
2021/03/11 02:34:34;;;;;;;17.80;16.37;;;;;;;;;;5099272;28;20506;-13
2021/03/11 02:37:03;;;;;;;16.67;15.33;;;;;;;;;;5082289;28;20460;-13
2021/03/11 02:39:33;;;;;;;18.20;16.33;;;;;;;;;;5078829;28;20437;-14
2021/03/11 02:42:18;;;;;;;19.00;17.60;;;;;;;;;;5075681;28;20444;-10
2021/03/11 02:44:47;;;;;;;16.60;15.23;;;;;;;;;;5075618;28;20448;-10
2021/03/11 02:47:14;;;;;;;16.90;15.40;;;;;;;;;;5082719;28;20443;-10
2021/03/11 02:49:47;;;;;;;17.10;15.63;;;;;;;;;;5077582;28;20431;-10
2021/03/11 02:52:16;;;;;;;17.60;16.17;;;;;;;;;;5096879;28;20443;-10
2021/03/11 02:54:44;;;;;;;17.60;16.00;;;;;;;;;;5075463;28;20480;-11
2021/03/11 02:57:12;;;;;;;18.30;16.80;;;;;;;;;;5075779;28;20737;-9
2021/03/11 02:59:40;;;;;;;17.63;16.13;;;;;;;;;;5075191;28;20448;-11
2021/03/11 03:02:08;;;;;;;18.33;16.90;;;;;;;;;;5073634;28;20440;-10
2021/03/11 03:04:37;;;;;;;18.53;17.07;;;;;;;;;;5092752;28;20436;-11
2021/03/11 03:07:04;;;;;;;17.60;16.20;;;;;;;;;;5082993;28;20449;-11
2021/03/11 03:09:32;;;;;;;19.30;17.37;;;;;;;;;;5074970;28;20996;-11
2021/03/11 03:12:00;;;;;;;18.63;17.03;;;;;;;;;;5076453;28;20465;-11
2021/03/11 03:14:28;;;;;;;18.30;16.80;;;;;;;;;;5075821;28;20488;-10
2021/03/11 03:16:56;;;;;;;17.97;16.37;;;;;;;;;;5073372;28;20432;-12
2021/03/11 03:19:25;;;;;;;17.60;16.30;;;;;;;;;;5073885;28;20495;-11
2021/03/11 03:21:54;;;;;;;19.43;17.83;;;;;;;;;;5056983;28;20518;-11
2021/03/11 03:24:22;;;;;;;18.70;17.17;;;;;;;;;;5075006;28;20436;-10
2021/03/11 03:26:50;;;;;;;18.97;17.43;;;;;;;;;;5057587;28;20456;-11
2021/03/11 03:29:19;;;;;;;19.53;17.80;;;;;;;;;;5075075;28;20445;-11
2021/03/11 03:31:52;;;;;;;19.77;18.07;;;;;;;;;;5074422;28;20571;-11
2021/03/11 03:34:21;;;;;;;18.27;16.77;;;;;;;;;;5073546;28;20437;-10
2021/03/11 03:36:49;;;;;;;19.80;17.87;;;;;;;;;;5073526;28;20543;-10
2021/03/11 03:39:18;;;;;;;18.97;17.23;;;;;;;;;;5073118;28;20495;-10
2021/03/11 03:41:49;;;;;;;19.60;17.90;;;;;;;;;;5072581;28;21084;-9
2021/03/11 03:44:19;;;;;;;20.50;18.57;;;;;;;;;;5074814;28;20503;-10
2021/03/11 03:46:47;;;;;;;17.83;16.50;;;;;;;;;;5073736;28;20890;-10
2021/03/11 03:49:16;;;;;;;18.10;16.70;;;;;;;;;;5073510;28;20855;-10
2021/03/11 03:51:46;;;;;;;18.87;17.17;;;;;;;;;;5081579;28;20447;-10
2021/03/11 03:54:16;;;;;;;19.13;17.73;;;;;;;;;;5094360;28;20439;-11
2021/03/11 03:56:44;;;;;;;17.40;16.00;;;;;;;;;;5093679;28;20853;-10
2021/03/11 03:59:14;;;;;;;17.43;16.03;;;;;;;;;;5093973;28;20471;-10
2021/03/11 04:01:43;;;;;;;20.30;17.83;;;;;;;;;;5094332;28;20440;-10
2021/03/11 04:04:11;;;;;;;18.50;16.90;;;;;;;;;;5094419;28;20460;-11
2021/03/11 04:06:39;;;;;;;19.90;18.23;;;;;;;;;;5095240;28;20761;-10
2021/03/11 04:09:08;;;;;;;17.90;16.50;;;;;;;;;;5092298;28;20449;-11
2021/03/11 04:11:36;;;;;;;18.90;17.30;;;;;;;;;;5092458;28;20900;-10
2021/03/11 04:14:04;;;;;;;18.70;17.17;;;;;;;;;;5092749;28;20483;-11
2021/03/11 04:16:32;;;;;;;18.83;17.33;;;;;;;;;;5091674;28;20432;-11
2021/03/11 04:19:00;;;;;;;20.43;18.83;;;;;;;;;;5092032;28;20468;-12
2021/03/11 04:21:29;;;;;;;19.53;18.03;;;;;;;;;;5092402;28;20436;-11
2021/03/11 04:23:57;;;;;;;20.53;18.80;;;;;;;;;;5093569;28;20816;-12
2021/03/11 04:26:24;;;;;;;18.80;17.30;;;;;;;;;;5094015;28;20535;-11
2021/03/11 04:28:52;;;;;;;20.30;18.60;;;;;;;;;;5090290;28;20511;-11
2021/03/11 04:31:20;;;;;;;18.70;17.30;;;;;;;;;;5086669;28;21029;-11
2021/03/11 04:33:47;;;;;;;19.20;17.60;;;;;;;;;;5101150;28;20455;-10
2021/03/11 04:36:15;;;;;;;19.23;17.63;;;;;;;;;;5093097;28;20453;-12
2021/03/11 04:38:42;;;;;;;20.27;18.67;;;;;;;;;;5094255;28;20984;-11
2021/03/11 04:41:11;;;;;;;18.70;17.40;;;;;;;;;;5078643;28;20528;-10
2021/03/11 04:43:40;;;;;;;19.43;17.63;;;;;;;;;;5071867;28;20464;-11
2021/03/11 04:46:09;;;;;;;17.53;16.23;;;;;;;;;;5088471;28;20533;-11
2021/03/11 04:48:39;;;;;;;20.27;18.57;;;;;;;;;;5091861;28;20432;-11
2021/03/11 04:51:08;;;;;;;18.97;17.47;;;;;;;;;;5090730;28;20761;-10
2021/03/11 04:53:38;;;;;;;18.60;17.10;;;;;;;;;;5089391;28;20533;-11
2021/03/11 04:56:09;;;;;;;18.77;17.27;;;;;;;;;;5090662;28;20436;-11
2021/03/11 04:58:39;;;;;;;19.43;17.50;;;;;;;;;;5091975;28;20486;-12
2021/03/11 05:01:13;;;;;;;19.17;17.77;;;;;;;;;;5088332;28;20463;-11
2021/03/11 05:03:52;;;;;;;18.90;17.23;;;;;;;;;;5089194;28;20440;-11
2021/03/11 05:06:19;;;;;;;20.37;18.73;;;;;;;;;;5089684;28;20435;-11
2021/03/11 05:08:48;;;;;;;20.10;18.60;;;;;;;;;;5087848;28;20452;-12
2021/03/11 05:11:15;;;;;;;17.83;16.53;;;;;;;;;;5087765;28;21141;-11
2021/03/11 05:13:44;;;;;;;18.80;17.20;;;;;;;;;;5088167;28;20486;-12
2021/03/11 05:16:16;;;;;;;16.90;15.70;;;;;;;;;;5067184;28;20440;-12
2021/03/11 05:18:52;;;;;;;15.57;14.17;;;;;;;;;;5066632;28;20802;-11
2021/03/11 05:21:23;;;;;;;16.20;15.10;;;;;;;;;;5069184;28;20772;-10
2021/03/11 05:23:52;;;;;;;16.73;15.63;;;;;;;;;;5069784;28;20544;-10
2021/03/11 05:26:20;;;;;;;16.97;15.67;;;;;;;;;;5069202;28;20471;-11
2021/03/11 05:28:49;;;;;;;16.60;15.40;;;;;;;;;;5071841;28;20467;-10
2021/03/11 05:31:19;;;;;;;15.93;14.63;;;;;;;;;;5088772;28;20435;-11
2021/03/11 05:33:47;;;;;;;15.80;14.67;;;;;;;;;;5088101;28;20435;-11
2021/03/11 05:36:16;;;;;;;15.80;14.60;;;;;;;;;;5091684;28;20440;-12
2021/03/11 05:38:45;;;;;;;14.70;13.70;;;;;;;;;;5091496;28;21108;-11
2021/03/11 05:41:13;;;;;;;14.83;13.83;;;;;;;;;;5089322;28;20432;-10
2021/03/11 05:43:43;;;;;;;15.33;14.30;;;;;;;;;;5089172;28;20959;-11
2021/03/11 05:46:10;;;;;;;14.37;13.50;;;;;;;;;;5091324;28;20455;-11
2021/03/11 05:48:40;;;;;;;15.40;14.10;;;;;;;;;;5089238;28;20431;-10
2021/03/11 05:51:09;;;;;;;17.90;16.70;;;;;;;;;;5089471;28;20440;-10
2021/03/11 05:53:38;;;;;;;16.00;14.90;;;;;;;;;;5089789;28;20845;-10
2021/03/11 05:56:06;;;;;;;32.73;27.37;;;;;;;;;;5088840;28;20557;-10
2021/03/11 05:58:33;;;;;;;22.70;20.20;;;;;;;;;;5088451;28;20558;-11
2021/03/11 06:01:01;;;;;;;43.40;38.67;;;;;;;;;;5088243;28;20435;-11
2021/03/11 06:03:31;;;;;;;20.37;18.47;;;;;;;;;;5085715;28;20451;-11
2021/03/11 06:06:00;;;;;;;22.33;20.43;;;;;;;;;;5067631;28;20446;-10
2021/03/11 06:08:27;;;;;;;15.83;14.63;;;;;;;;;;5070819;28;20505;-11
2021/03/11 06:10:56;;;;;;;19.37;17.90;;;;;;;;;;5064676;28;20452;-11
2021/03/11 06:13:26;;;;;;;28.87;26.37;;;;;;;;;;5066473;28;20512;-11
2021/03/11 06:15:56;;;;;;;24.77;22.60;;;;;;;;;;5065708;28;20445;-11
2021/03/11 06:18:24;;;;;;;22.27;20.47;;;;;;;;;;5069486;28;20535;-11
2021/03/11 06:20:55;;;;;;;22.87;20.57;;;;;;;;;;5080767;28;21578;-12
2021/03/11 06:23:24;;;;;;;19.80;17.90;;;;;;;;;;5082723;28;20455;-11
2021/03/11 06:25:54;;;;;;;20.60;18.70;;;;;;;;;;5083124;28;21043;-12
2021/03/11 06:28:44;;;;;;;19.53;17.53;;;;;;;;;;5081664;28;20436;-11
2021/03/11 06:31:17;;;;;;;17.10;15.70;;;;;;;;;;5078101;28;21093;-11
2021/03/11 06:33:46;;;;;;;19.83;17.60;;;;;;;;;;5078226;28;20503;-11
2021/03/11 06:36:13;;;;;;;20.83;18.83;;;;;;;;;;5077032;28;20481;-11
2021/03/11 06:38:42;;;;;;;22.17;20.07;;;;;;;;;;5076546;28;20940;-10
2021/03/11 06:41:11;;;;;;;19.83;18.00;;;;;;;;;;5075303;28;20563;-11
2021/03/11 06:43:51;;;;;;;22.13;20.10;;;;;;;;;;5075888;28;20470;-10
2021/03/11 06:46:19;;;;;;;17.80;16.30;;;;;;;;;;5074880;28;21326;-11
2021/03/11 06:48:48;;;;;;;17.13;15.50;;;;;;;;;;5076845;28;20468;-10
2021/03/11 06:51:18;;;;;;;14.23;13.33;;;;;;;;;;5073023;28;21315;-10
2021/03/11 06:53:56;;;;;;;13.00;12.20;;;;;;;;;;5075561;28;20942;-12
2021/03/11 06:56:24;;;;;;;14.40;13.50;;;;;;;;;;5074501;28;20745;-9
2021/03/11 06:58:58;;;;;;;13.97;12.97;;;;;;;;;;5074533;28;20567;-12
2021/03/11 07:01:26;;;;;;;13.60;12.70;;;;;;;;;;5066944;28;20459;-14
2021/03/11 07:03:53;;;;;;;14.67;12.93;;;;;;;;;;5067759;28;20476;-12
2021/03/11 07:06:28;;;;;;;13.13;12.23;;;;;;;;;;5031533;28;20565;-10
2021/03/11 07:08:56;;;;;;;10.93;10.23;;;;;;;;;;5066146;28;20435;-9
2021/03/11 07:11:24;;;;;;;10.53;9.80;;;;;;;;;;5066305;28;20703;-11
2021/03/11 07:13:52;;;;;;;10.63;10.03;;;;;;;;;;5065972;28;20452;-10
2021/03/11 07:16:20;;;;;;;9.70;9.20;;;;;;;;;;5068839;28;21190;-12
2021/03/11 07:18:48;;;;;;;9.50;9.00;;;;;;;;;;5042577;28;20507;-11
2021/03/11 07:21:36;;;;;;;10.33;9.83;;;;;;;;;;5053600;28;20455;-10
2021/03/11 07:24:09;;;;;;;10.40;9.90;;;;;;;;;;5067863;28;20518;-13
2021/03/11 07:26:40;;;;;;;9.73;9.23;;;;;;;;;;5048523;28;20467;-10
2021/03/11 07:29:18;;;;;;;9.10;8.63;;;;;;;;;;5045401;28;21326;-13
2021/03/11 07:31:55;;;;;;;9.30;8.70;;;;;;;;;;5051571;28;20468;-11
2021/03/11 07:34:28;;;;;;;9.13;8.53;;;;;;;;;;5044309;28;20452;-11
2021/03/11 07:36:58;;;;;;;9.27;8.40;;;;;;;;;;5052458;28;20459;-10
2021/03/11 07:39:38;;;;;;;9.03;8.57;;;;;;;;;;5059411;28;20483;-12
2021/03/11 07:42:10;;;;;;;9.57;9.07;;;;;;;;;;5063250;28;20479;-12
2021/03/11 07:44:40;;;;;;;9.33;8.83;;;;;;;;;;5059985;28;20558;-11
2021/03/11 07:47:07;;;;;;;9.73;9.03;;;;;;;;;;5059189;28;20479;-11
2021/03/11 07:49:37;;;;;;;9.87;9.10;;;;;;;;;;5064014;28;20514;-11
2021/03/11 07:52:11;;;;;;;8.83;8.33;;;;;;;;;;5061011;28;20436;-11
2021/03/11 07:54:51;;;;;;;9.70;8.90;;;;;;;;;;5063484;28;20783;-12
2021/03/11 07:57:18;;;;;;;8.90;8.50;;;;;;;;;;5058776;28;20436;-12
2021/03/11 07:59:51;;;;;;;9.00;8.60;;;;;;;;;;5033835;28;20508;-12
2021/03/11 08:02:21;;;;;;;8.90;8.60;;;;;;;;;;5051250;28;21039;-12
2021/03/11 08:04:48;;;;;;;8.80;8.50;;;;;;;;;;5056934;28;20518;-12
2021/03/11 08:07:21;;;;;;;9.20;8.70;;;;;;;;;;5060654;28;20443;-11
2021/03/11 08:09:52;;;;;;;9.23;8.57;;;;;;;;;;5061230;28;20845;-12
2021/03/11 08:12:36;;;;;;;9.23;8.83;;;;;;;;;;5057735;28;20649;-10
2021/03/11 08:15:06;;;;;;;8.83;8.40;;;;;;;;;;5055691;28;20473;-10
2021/03/11 08:17:47;;;;;;;8.47;8.10;;;;;;;;;;5052375;28;20509;-10
2021/03/11 08:20:33;;;;;;;9.90;9.20;;;;;;;;;;5057660;28;20444;-10
2021/03/11 08:23:07;;;;;;;10.47;9.53;;;;;;;;;;5035735;28;20441;-11
2021/03/11 08:25:48;;;;;;;8.67;8.07;;;;;;;;;;5027880;28;20476;-11
2021/03/11 08:28:34;;;;;;;7.60;7.20;;;;;;;;;;5031447;28;20555;-11
2021/03/11 08:31:05;;;;;;;7.90;7.50;;;;;;;;;;5037354;28;20627;-12
2021/03/11 08:33:54;;;;;;;7.80;7.23;;;;;;;;;;5034186;28;20463;-12
2021/03/11 08:36:43;;;;;;;8.30;7.70;;;;;;;;;;5037961;28;20908;-13
2021/03/11 08:39:28;;;;;;;8.17;7.50;;;;;;;;;;5036791;28;20562;-12
2021/03/11 08:42:21;;;;;;;7.67;7.07;;;;;;;;;;5057889;28;20493;-10
2021/03/11 08:44:50;;;;;;;7.73;7.20;;;;;;;;;;5053549;28;20472;-13
2021/03/11 08:47:18;;;;;;;7.73;7.33;;;;;;;;;;5057622;28;20439;-12
2021/03/11 08:49:53;;;;;;;7.90;7.40;;;;;;;;;;5054488;28;20455;-12
2021/03/11 08:52:46;;;;;;;7.43;7.13;;;;;;;;;;5082962;28;20442;-12
2021/03/11 08:55:34;;;;;;;8.40;7.80;;;;;;;;;;5052180;28;20562;-13
2021/03/11 08:58:25;;;;;;;8.07;7.57;;;;;;;;;;5066269;28;20566;-12
2021/03/11 09:01:00;;;;;;;8.60;7.93;;;;;;;;;;5075726;28;20448;-13
2021/03/11 09:03:46;;;;;;;8.40;8.00;;;;;;;;;;5080868;28;20473;-13
2021/03/11 09:06:17;;;;;;;8.20;7.10;;;;;;;;;;5074306;28;20541;-13
2021/03/11 09:08:54;;;;;;;7.20;6.87;;;;;;;;;;5063795;28;20439;-13
2021/03/11 09:11:25;;;;;;;7.43;7.03;;;;;;;;;;5086010;28;20428;-13
2021/03/11 09:13:54;;;;;;;7.60;7.20;;;;;;;;;;5085911;28;20447;-13
2021/03/11 09:16:26;;;;;;;8.57;8.17;;;;;;;;;;5087572;28;20436;-13
2021/03/11 09:18:58;;;;;;;7.90;7.50;;;;;;;;;;5072768;28;20535;-13
2021/03/11 09:21:33;;;;;;;7.90;7.40;;;;;;;;;;5085770;28;20463;-13
2021/03/11 09:24:19;;;;;;;7.80;7.40;;;;;;;;;;5087279;28;20502;-14
2021/03/11 09:26:54;;;;;;;7.53;7.20;;;;;;;;;;5086007;28;20439;-14
2021/03/11 09:29:26;;;;;;;8.00;7.70;;;;;;;;;;5071675;28;20436;-13
2021/03/11 09:31:59;;;;;;;9.07;8.13;;;;;;;;;;5088473;28;20453;-14
2021/03/11 09:34:32;;;;;;;7.50;7.10;;;;;;;;;;5089737;28;20860;-14
2021/03/11 09:37:03;;;;;;;7.57;7.17;;;;;;;;;;5088801;28;20435;-14
2021/03/11 09:39:32;;;;;;;12.63;6.80;;;;;;;;;;5089284;28;20485;-13
2021/03/11 09:42:10;;;;;;;6.80;6.30;;;;;;;;;;5084666;28;20917;-14
2021/03/11 09:44:46;;;;;;;7.13;6.90;;;;;;;;;;5063759;28;20435;-11
2021/03/11 09:47:30;;;;;;;7.80;7.50;;;;;;;;;;5084843;28;20450;-13
2021/03/11 09:50:11;;;;;;;7.40;7.10;;;;;;;;;;5063877;28;20459;-14
2021/03/11 09:53:03;;;;;;;7.60;7.20;;;;;;;;;;5062873;28;21003;-14
2021/03/11 09:55:31;;;;;;;7.77;7.57;;;;;;;;;;5085780;28;20448;-14
2021/03/11 09:58:02;;;;;;;7.57;7.27;;;;;;;;;;5058834;28;20494;-13
2021/03/11 10:00:33;;;;;;;7.20;6.60;;;;;;;;;;5080835;28;20440;-14
2021/03/11 10:03:02;;;;;;;6.87;6.67;;;;;;;;;;5066286;28;20460;-14
2021/03/11 10:05:36;;;;;;;6.80;6.60;;;;;;;;;;5081508;28;20436;-13
2021/03/11 10:08:04;;;;;;;7.00;6.70;;;;;;;;;;5082280;28;20455;-14
2021/03/11 10:10:44;;;;;;;8.00;7.60;;;;;;;;;;5081877;28;20459;-13
2021/03/11 10:13:38;;;;;;;7.47;7.20;;;;;;;;;;5057589;28;20548;-13
2021/03/11 10:16:08;;;;;;;7.00;6.80;;;;;;;;;;5066190;28;20435;-13
2021/03/11 10:18:40;;;;;;;8.30;7.47;;;;;;;;;;5048857;28;20476;-13
2021/03/11 10:21:16;;;;;;;7.67;7.17;;;;;;;;;;5070670;28;20448;-14
2021/03/11 10:23:52;;;;;;;7.00;6.73;;;;;;;;;;5069181;28;20483;-15
2021/03/11 10:26:27;;;;;;;7.63;7.33;;;;;;;;;;5069461;28;20456;-14
2021/03/11 10:29:05;;;;;;;8.33;7.83;;;;;;;;;;5048725;28;20460;-13
2021/03/11 10:31:34;;;;;;;7.47;7.13;;;;;;;;;;5065469;28;20463;-14
2021/03/11 10:34:07;;;;;;;7.47;7.17;;;;;;;;;;5045166;28;20795;-13
2021/03/11 10:36:40;;;;;;;9.93;9.40;;;;;;;;;;5047364;28;20456;-14
2021/03/11 10:39:18;;;;;;;7.00;6.60;;;;;;;;;;5078195;28;20483;-13
2021/03/11 10:42:04;;;;;;;7.53;7.23;;;;;;;;;;5068550;28;21429;-12
2021/03/11 10:44:41;;;;;;;8.00;7.70;;;;;;;;;;5069546;28;20444;-13
2021/03/11 10:47:12;;;;;;;8.30;7.80;;;;;;;;;;5085095;28;20481;-13
2021/03/11 10:49:42;;;;;;;7.00;6.60;;;;;;;;;;5084928;28;20532;-12
2021/03/11 10:52:17;;;;;;;6.43;6.13;;;;;;;;;;5066275;28;20539;-12
2021/03/11 10:54:46;;;;;;;7.40;7.10;;;;;;;;;;5075613;28;20459;-13
2021/03/11 10:57:24;;;;;;;8.73;8.23;;;;;;;;;;5071061;28;21275;-12
2021/03/11 10:59:58;;;;;;;8.37;7.87;;;;;;;;;;5088480;28;20537;-14
2021/03/11 11:02:30;;;;;;;7.70;7.40;;;;;;;;;;5087478;28;20434;-12
2021/03/11 11:05:01;;;;;;;7.23;7.03;;;;;;;;;;5071640;28;20436;-14
2021/03/11 11:07:43;;;;;;;7.50;7.13;;;;;;;;;;5089525;28;20447;-13
2021/03/11 11:10:13;;;;;;;8.13;7.83;;;;;;;;;;5087049;28;20432;-12
2021/03/11 11:12:45;;;;;;;7.53;7.23;;;;;;;;;;5090042;28;20447;-13
2021/03/11 11:15:19;;;;;;;7.80;7.30;;;;;;;;;;5073721;28;20527;-13
2021/03/11 11:17:49;;;;;;;7.80;7.40;;;;;;;;;;5090966;28;20440;-15
2021/03/11 11:20:20;;;;;;;8.37;8.07;;;;;;;;;;5089716;28;20430;-14
2021/03/11 11:22:56;;;;;;;8.23;7.73;;;;;;;;;;5088272;28;20436;-14
2021/03/11 11:25:25;;;;;;;8.30;8.10;;;;;;;;;;5089962;28;20435;-13
2021/03/11 11:27:59;;;;;;;7.87;7.57;;;;;;;;;;5090521;28;20929;-14
2021/03/11 11:30:28;;;;;;;7.23;6.93;;;;;;;;;;5090161;28;21241;-14
2021/03/11 11:32:56;;;;;;;7.43;7.23;;;;;;;;;;5070189;28;20815;-12
2021/03/11 11:35:26;;;;;;;7.50;7.00;;;;;;;;;;5086210;28;20974;-13
2021/03/11 11:37:59;;;;;;;7.70;7.40;;;;;;;;;;5066407;28;20570;-12
2021/03/11 11:40:27;;;;;;;7.60;7.40;;;;;;;;;;5090448;28;20475;-14
2021/03/11 11:43:00;;;;;;;7.50;7.10;;;;;;;;;;5071112;28;20459;-12
2021/03/11 11:45:30;;;;;;;8.07;7.77;;;;;;;;;;5071304;28;20554;-13
2021/03/11 11:48:00;;;;;;;6.97;6.67;;;;;;;;;;5085327;28;20442;-12
2021/03/11 11:50:28;;;;;;;6.63;6.43;;;;;;;;;;5068656;28;20463;-12
2021/03/11 11:53:00;;;;;;;7.30;7.00;;;;;;;;;;5083965;28;20516;-12
2021/03/11 11:55:32;;;;;;;6.57;6.37;;;;;;;;;;5085498;28;20661;-13
2021/03/11 11:58:02;;;;;;;8.13;7.70;;;;;;;;;;5071906;28;20459;-13
2021/03/11 12:00:33;;;;;;;6.63;6.43;;;;;;;;;;5070466;28;20455;-14
2021/03/11 12:03:02;;;;;;;6.00;5.73;;;;;;;;;;5038910;28;20534;-13
2021/03/11 12:05:32;;;;;;;6.37;6.10;;;;;;;;;;5058082;28;20456;-15
2021/03/11 12:08:03;;;;;;;13.20;6.80;;;;;;;;;;5065555;28;20440;-14
2021/03/11 12:10:34;;;;;;;6.83;6.60;;;;;;;;;;5045154;28;20433;-16
2021/03/11 12:13:07;;;;;;;5.90;5.70;;;;;;;;;;5043430;28;20445;-16
2021/03/11 12:15:39;;;;;;;6.30;6.10;;;;;;;;;;5023377;28;20468;-16
2021/03/11 12:18:13;;;;;;;6.37;6.07;;;;;;;;;;5041390;28;20537;-16
2021/03/11 12:20:40;;;;;;;8.13;7.50;;;;;;;;;;5042124;28;20491;-15
2021/03/11 12:23:11;;;;;;;6.67;6.37;;;;;;;;;;5041359;28;20441;-16
2021/03/11 12:25:41;;;;;;;7.20;6.90;;;;;;;;;;5039330;28;20447;-16
2021/03/11 12:28:10;;;;;;;7.50;7.00;;;;;;;;;;5038011;28;20456;-17
2021/03/11 12:30:39;;;;;;;6.73;6.43;;;;;;;;;;5025459;28;21228;-16
2021/03/11 12:33:09;;;;;;;6.40;6.00;;;;;;;;;;5037818;28;20573;-15
2021/03/11 12:35:38;;;;;;;6.57;6.23;;;;;;;;;;5037120;28;20514;-17
2021/03/11 12:38:06;;;;;;;6.17;5.97;;;;;;;;;;5034792;28;20453;-14
2021/03/11 12:40:36;;;;;;;6.40;6.10;;;;;;;;;;5024417;28;20552;-15
2021/03/11 12:43:07;;;;;;;6.40;6.20;;;;;;;;;;5018847;28;20555;-17
2021/03/11 12:45:37;;;;;;;6.40;6.20;;;;;;;;;;5046796;28;20933;-16
2021/03/11 12:48:07;;;;;;;6.13;5.93;;;;;;;;;;4992312;28;20448;-15
2021/03/11 12:50:37;;;;;;;6.80;6.50;;;;;;;;;;5023927;28;20546;-15
2021/03/11 12:53:04;;;;;;;6.67;6.47;;;;;;;;;;5020660;28;20513;-16
2021/03/11 12:55:38;;;;;;;6.40;6.10;;;;;;;;;;5042283;28;20457;-16
2021/03/11 12:58:12;;;;;;;5.93;5.73;;;;;;;;;;5044816;28;20905;-15
2021/03/11 13:00:43;;;;;;;6.30;5.90;;;;;;;;;;5024264;28;20560;-16
2021/03/11 13:03:12;;;;;;;5.90;5.80;;;;;;;;;;5035672;28;20480;-15
2021/03/11 13:05:45;;;;;;;6.77;6.37;;;;;;;;;;5056938;28;20495;-16
2021/03/11 13:08:20;;;;;;;6.40;6.20;;;;;;;;;;5051905;28;20455;-16
2021/03/11 13:10:53;;;;;;;6.23;6.03;;;;;;;;;;5067709;28;20484;-15
2021/03/11 13:13:28;;;;;;;5.80;5.60;;;;;;;;;;5067438;28;20443;-16
2021/03/11 13:15:59;;;;;;;6.27;6.07;;;;;;;;;;5065329;28;20443;-15
2021/03/11 13:18:27;;;;;;;6.30;6.10;;;;;;;;;;5066100;28;20463;-15
2021/03/11 13:20:57;;;;;;;6.10;5.90;;;;;;;;;;5067370;28;20448;-16
2021/03/11 13:23:26;;;;;;;5.73;5.53;;;;;;;;;;5064560;28;20467;-15
2021/03/11 13:25:54;;;;;;;5.40;5.30;;;;;;;;;;5062531;28;20461;-15
2021/03/11 13:28:27;;;;;;;5.40;5.30;;;;;;;;;;5034045;28;20487;-15
2021/03/11 13:30:57;;;;;;;5.80;5.60;;;;;;;;;;5066607;28;20443;-15
2021/03/11 13:33:26;;;;;;;6.03;5.83;;;;;;;;;;5068547;28;20448;-15
2021/03/11 13:35:56;;;;;;;5.80;5.70;;;;;;;;;;5048679;28;20459;-16
2021/03/11 13:38:25;;;;;;;6.50;6.30;;;;;;;;;;5067101;28;20489;-16
2021/03/11 13:40:58;;;;;;;5.60;5.40;;;;;;;;;;5067146;28;20680;-15
2021/03/11 13:43:32;;;;;;;5.30;5.20;;;;;;;;;;5067159;28;21217;-16
2021/03/11 13:46:02;;;;;;;5.20;5.10;;;;;;;;;;5068272;28;20435;-15
2021/03/11 13:48:31;;;;;;;5.60;5.40;;;;;;;;;;5067357;28;20456;-16
2021/03/11 13:51:00;;;;;;;5.67;5.40;;;;;;;;;;5066718;28;20965;-15
2021/03/11 13:53:28;;;;;;;6.00;5.80;;;;;;;;;;5037775;28;20443;-15
2021/03/11 13:55:57;;;;;;;6.87;6.57;;;;;;;;;;5068789;28;20542;-15
2021/03/11 13:58:24;;;;;;;5.97;5.67;;;;;;;;;;5070275;28;20815;-16
2021/03/11 14:12:30;;;;;;;5.33;5.17;;;;;;;;;;4945418;28;20476;-18
2021/03/11 14:14:59;;;;;;;5.00;4.90;;;;;;;;;;4936677;28;20818;-17
2021/03/11 14:17:28;;;;;;;5.10;5.00;;;;;;;;;;4955341;28;20544;-18
2021/03/11 14:19:59;;;;;;;5.87;5.67;;;;;;;;;;4944743;28;20465;-18
2021/03/11 14:22:29;;;;;;;5.50;5.30;;;;;;;;;;4918185;29;20763;-18
2021/03/11 14:24:57;;;;;;;7.07;6.80;;;;;;;;;;4930682;29;20541;-19
2021/03/11 14:27:28;;;;;;;7.50;7.30;;;;;;;;;;4932711;29;20438;-19
2021/03/11 14:29:59;;;;;;;7.33;7.03;;;;;;;;;;4931127;29;20454;-18
2021/03/11 14:32:32;;;;;;;6.00;5.80;;;;;;;;;;4922794;28;20798;-17
2021/03/11 14:35:08;;;;;;;6.40;6.10;;;;;;;;;;4931319;28;20486;-16
2021/03/11 14:37:37;;;;;;;7.30;7.00;;;;;;;;;;4948748;28;20472;-16
2021/03/11 14:40:06;;;;;;;5.70;5.60;;;;;;;;;;4933525;28;21072;-15
2021/03/11 14:42:35;;;;;;;6.00;5.70;;;;;;;;;;4908232;29;20442;-15
2021/03/11 14:45:05;;;;;;;6.43;6.10;;;;;;;;;;4929704;29;20450;-14
2021/03/11 14:47:34;;;;;;;6.23;6.10;;;;;;;;;;4929145;28;21236;-15
2021/03/11 14:50:01;;;;;;;5.83;5.63;;;;;;;;;;4912071;29;20458;-16
2021/03/11 14:52:30;;;;;;;6.10;5.80;;;;;;;;;;4927426;29;20858;-16
2021/03/11 14:54:58;;;;;;;6.03;5.90;;;;;;;;;;4928272;29;20506;-15
2021/03/11 14:57:27;;;;;;;5.43;5.33;;;;;;;;;;4922001;28;20587;-15
2021/03/11 14:59:55;;;;;;;5.33;5.13;;;;;;;;;;4931214;28;20516;-17
2021/03/11 15:02:24;;;;;;;5.53;5.40;;;;;;;;;;4962176;28;20448;-16
2021/03/11 15:04:53;;;;;;;6.00;5.80;;;;;;;;;;4964202;28;20487;-15